createdAt,value
2023-05-04T00:01:02.207Z,10.34
2023-05-04T00:04:04.054Z,10.12
2023-05-04T00:07:05.783Z,10.33
2023-05-04T00:10:08.171Z,10.40
2023-05-04T00:13:10.165Z,10.44
2023-05-04T00:16:12.008Z,10.63
2023-05-04T00:19:13.697Z,10.74
2023-05-04T00:22:15.437Z,10.77
2023-05-04T00:25:17.144Z,10.76
2023-05-04T00:28:18.857Z,10.75
2023-05-04T00:31:20.897Z,10.74
2023-05-04T00:34:22.663Z,10.85
2023-05-04T00:37:24.365Z,10.84
2023-05-04T00:40:26.117Z,10.77
2023-05-04T00:43:27.761Z,10.71
2023-05-04T00:46:29.549Z,10.59
2023-05-04T00:49:31.487Z,10.39
2023-05-04T00:52:33.121Z,10.43
2023-05-04T00:55:37.428Z,10.40
2023-05-04T00:58:39.073Z,10.30
2023-05-04T01:01:41.322Z,10.31
2023-05-04T01:04:42.954Z,10.23
2023-05-04T01:08:06.062Z,10.28
2023-05-04T01:11:10.553Z,10.34
2023-05-04T01:14:12.207Z,10.27
2023-05-04T01:17:13.840Z,10.36
2023-05-04T01:20:15.578Z,10.17
2023-05-04T01:23:17.239Z,10.13
2023-05-04T01:26:30.047Z,10.07
2023-05-04T01:29:45.599Z,9.85
2023-05-04T01:32:47.343Z,9.74
2023-05-04T01:35:49.320Z,9.53
2023-05-04T01:38:54.807Z,9.45
2023-05-04T01:41:56.459Z,9.31
2023-05-04T01:44:58.121Z,9.16
2023-05-04T01:47:59.914Z,9.23
2023-05-04T01:51:01.618Z,9.21
2023-05-04T01:54:03.237Z,9.16
2023-05-04T01:57:05.899Z,9.03
2023-05-04T02:00:08.187Z,9.04
2023-05-04T02:03:19.618Z,8.98
2023-05-04T02:06:21.622Z,9.01
2023-05-04T02:09:23.227Z,9.01
2023-05-04T02:12:24.886Z,9.13
2023-05-04T02:15:26.617Z,9.22
2023-05-04T02:18:28.270Z,9.22
2023-05-04T02:21:29.912Z,8.96
2023-05-04T02:24:31.738Z,8.78
2023-05-04T02:27:33.397Z,8.80
2023-05-04T02:30:35.003Z,8.83
2023-05-04T02:33:36.661Z,8.70
2023-05-04T02:36:38.299Z,8.75
2023-05-04T02:39:39.949Z,8.95
2023-05-04T02:42:41.599Z,8.97
2023-05-04T02:45:43.269Z,9.07
2023-05-04T02:48:44.910Z,9.24
2023-05-04T02:51:46.558Z,9.21
2023-05-04T02:54:48.222Z,9.18
2023-05-04T02:57:49.933Z,9.03
2023-05-04T03:00:54.876Z,8.93
2023-05-04T03:03:56.614Z,8.87
2023-05-04T03:06:58.300Z,8.92
2023-05-04T03:09:59.909Z,9.10
2023-05-04T03:13:01.587Z,9.04
2023-05-04T03:16:04.398Z,8.94
2023-05-04T03:19:06.275Z,8.68
2023-05-04T03:22:07.938Z,8.38
2023-05-04T03:25:09.769Z,8.25
2023-05-04T03:28:11.477Z,8.34
2023-05-04T03:31:13.160Z,8.47
2023-05-04T03:34:15.096Z,8.40
2023-05-04T03:37:16.944Z,8.51
2023-05-04T03:40:18.802Z,8.41
2023-05-04T03:43:20.511Z,8.41
2023-05-04T03:46:23.622Z,8.46
2023-05-04T03:49:27.272Z,8.34
2023-05-04T03:52:28.982Z,8.23
2023-05-04T03:55:30.818Z,8.09
2023-05-04T03:58:32.485Z,8.20
2023-05-04T04:01:37.163Z,8.33
2023-05-04T04:04:38.900Z,8.34
2023-05-04T04:07:40.733Z,8.34
2023-05-04T04:10:42.458Z,8.23
2023-05-04T04:13:44.134Z,8.21
2023-05-04T04:16:46.069Z,8.18
2023-05-04T04:19:47.753Z,8.17
2023-05-04T04:22:49.500Z,8.16
2023-05-04T04:25:51.133Z,8.19
2023-05-04T04:28:52.755Z,8.45
2023-05-04T04:31:54.418Z,8.43
2023-05-04T04:34:56.209Z,8.44
2023-05-04T04:37:57.933Z,8.56
2023-05-04T04:40:59.590Z,8.58
2023-05-04T04:44:01.238Z,8.91
2023-05-04T04:47:03.026Z,9.00
2023-05-04T04:50:05.548Z,9.17
2023-05-04T04:53:07.448Z,8.97
2023-05-04T04:56:09.154Z,9.09
2023-05-04T04:59:10.781Z,9.01
2023-05-04T05:02:12.399Z,9.08
2023-05-04T05:05:14.133Z,9.09
2023-05-04T05:08:15.964Z,8.91
2023-05-04T05:11:17.600Z,9.05
2023-05-04T05:14:19.229Z,9.06
2023-05-04T05:17:20.882Z,9.03
2023-05-04T05:20:22.622Z,9.11
2023-05-04T05:23:24.281Z,9.17
2023-05-04T05:26:25.923Z,9.15
2023-05-04T05:29:27.536Z,9.26
2023-05-04T05:32:29.573Z,9.22
2023-05-04T05:35:31.254Z,9.16
2023-05-04T05:38:32.900Z,9.15
2023-05-04T05:41:34.552Z,9.27
2023-05-04T05:44:36.177Z,9.25
2023-05-04T05:47:37.894Z,9.19
2023-05-04T05:50:39.634Z,9.30
2023-05-04T05:53:41.277Z,9.41
2023-05-04T05:56:42.941Z,9.62
2023-05-04T05:59:44.581Z,9.73
2023-05-04T06:02:46.279Z,9.74
2023-05-04T06:05:47.998Z,9.63
2023-05-04T06:08:49.617Z,9.67
2023-05-04T06:11:52.924Z,9.73
2023-05-04T06:14:55.662Z,9.74
2023-05-04T06:17:57.365Z,9.78
2023-05-04T06:20:59.679Z,10.10
2023-05-04T06:24:01.360Z,10.09
2023-05-04T06:27:03.029Z,10.17
2023-05-04T06:30:05.599Z,10.38
2023-05-04T06:33:07.462Z,10.54
2023-05-04T06:36:09.251Z,10.49
2023-05-04T06:39:10.939Z,10.29
2023-05-04T06:42:12.631Z,10.11
2023-05-04T06:45:16.445Z,10.20
2023-05-04T06:48:19.216Z,10.38
2023-05-04T06:51:20.847Z,10.40
2023-05-04T06:54:22.512Z,10.65
2023-05-04T06:57:24.160Z,10.77
2023-05-04T07:00:25.921Z,11.02
2023-05-04T07:03:27.668Z,10.97
2023-05-04T07:06:29.321Z,11.02
2023-05-04T07:09:31.010Z,11.12
2023-05-04T07:12:32.669Z,11.22
2023-05-04T07:15:34.294Z,11.32
2023-05-04T07:18:35.952Z,11.47
2023-05-04T07:21:37.686Z,11.56
2023-05-04T07:24:39.357Z,11.59
2023-05-04T07:27:41.007Z,11.58
2023-05-04T07:30:42.666Z,11.83
2023-05-04T07:33:44.253Z,11.98
2023-05-04T07:36:45.973Z,12.00
2023-05-04T07:39:47.710Z,12.29
2023-05-04T07:42:49.351Z,12.36
2023-05-04T07:45:52.931Z,12.18
2023-05-04T07:48:54.595Z,12.21
2023-05-04T07:51:56.214Z,12.17
2023-05-04T07:54:57.884Z,12.09
2023-05-04T07:57:59.519Z,12.51
2023-05-04T08:01:01.133Z,12.71
2023-05-04T08:04:02.905Z,12.82
2023-05-04T08:07:04.543Z,12.52
2023-05-04T08:10:06.621Z,12.38
2023-05-04T08:13:08.421Z,12.63
2023-05-04T08:16:10.272Z,12.73
2023-05-04T08:19:11.944Z,12.55
2023-05-04T08:22:13.643Z,12.63
2023-05-04T08:25:15.289Z,12.65
2023-05-04T08:28:16.952Z,12.50
2023-05-04T08:31:18.691Z,12.64
2023-05-04T08:34:20.451Z,12.68
2023-05-04T08:37:22.080Z,12.76
2023-05-04T08:40:23.867Z,12.88
2023-05-04T08:43:25.520Z,13.06
2023-05-04T08:46:27.256Z,13.35
2023-05-04T08:49:28.903Z,13.47
2023-05-04T08:52:30.637Z,13.50
2023-05-04T08:55:33.471Z,13.75
2023-05-04T08:58:38.314Z,13.84
2023-05-04T09:01:40.037Z,13.79
2023-05-04T09:04:41.711Z,14.15
2023-05-04T09:07:43.382Z,14.21
2023-05-04T09:10:44.999Z,14.30
2023-05-04T09:13:46.637Z,14.31
2023-05-04T09:16:48.351Z,14.54
2023-05-04T09:20:00.336Z,14.62
2023-05-04T09:23:05.778Z,14.41
2023-05-04T09:26:07.419Z,14.58
2023-05-04T09:29:13.068Z,14.45
2023-05-04T09:32:14.707Z,14.68
2023-05-04T09:35:29.254Z,14.62
2023-05-04T09:38:33.940Z,15.04
2023-05-04T09:41:35.571Z,15.15
2023-05-04T09:44:37.257Z,15.10
2023-05-04T09:47:39.789Z,15.26
2023-05-04T09:50:47.653Z,15.26
2023-05-04T09:53:49.644Z,15.18
2023-05-04T09:56:51.262Z,15.28
2023-05-04T09:59:52.912Z,15.41
2023-05-04T10:02:54.580Z,15.50
2023-05-04T10:05:58.820Z,15.33
2023-05-04T10:09:01.438Z,15.24
2023-05-04T10:12:03.198Z,15.35
2023-05-04T10:15:11.232Z,15.37
2023-05-04T10:18:24.138Z,15.46
2023-05-04T10:21:39.904Z,15.77
2023-05-04T10:24:47.418Z,15.79
2023-05-04T10:27:48.916Z,15.77
2023-05-04T10:30:59.998Z,15.63
2023-05-04T10:34:01.745Z,15.73
2023-05-04T10:37:03.436Z,15.69
2023-05-04T10:40:07.742Z,15.85
2023-05-04T10:43:09.809Z,15.82
2023-05-04T10:46:21.822Z,15.92
2023-05-04T10:49:23.481Z,15.64
2023-05-04T10:52:25.164Z,16.10
2023-05-04T10:55:26.873Z,16.41
2023-05-04T10:58:28.826Z,16.28
2023-05-04T11:01:30.840Z,16.39
2023-05-04T11:04:32.521Z,16.55
2023-05-04T11:07:38.004Z,16.58
2023-05-04T11:10:39.690Z,16.74
2023-05-04T11:13:42.175Z,16.62
2023-05-04T11:16:44.053Z,16.70
2023-05-04T11:19:49.532Z,16.57
2023-05-04T11:22:51.344Z,16.54
2023-05-04T11:25:53.107Z,16.78
2023-05-04T11:28:54.783Z,17.10
2023-05-04T11:31:56.515Z,17.32
2023-05-04T11:34:58.236Z,17.30
2023-05-04T11:37:59.944Z,17.39
2023-05-04T11:41:01.593Z,17.32
2023-05-04T11:44:05.884Z,17.27
2023-05-04T11:47:09.492Z,17.39
2023-05-04T11:50:12.326Z,17.60
2023-05-04T11:53:15.317Z,17.44
2023-05-04T11:56:16.903Z,17.40
2023-05-04T11:59:18.548Z,17.55
2023-05-04T12:02:20.898Z,17.65
2023-05-04T12:05:22.713Z,17.85
2023-05-04T12:08:37.291Z,17.86
2023-05-04T12:11:38.932Z,18.06
2023-05-04T12:15:07.433Z,18.03
2023-05-04T12:18:20.082Z,18.24
2023-05-04T12:21:21.719Z,18.09
2023-05-04T12:24:24.022Z,18.12
2023-05-04T12:27:26.124Z,18.17
2023-05-04T12:30:27.801Z,18.26
2023-05-04T12:33:29.469Z,18.37
2023-05-04T12:36:31.125Z,18.49
2023-05-04T12:39:32.785Z,18.62
2023-05-04T12:42:34.440Z,18.92
2023-05-04T12:45:36.868Z,18.91
2023-05-04T12:48:38.518Z,19.18
2023-05-04T12:51:40.171Z,19.25
2023-05-04T12:54:41.808Z,19.40
2023-05-04T12:57:43.717Z,19.48
2023-05-04T13:00:46.207Z,19.51
2023-05-04T13:03:48.022Z,19.51
2023-05-04T13:06:49.686Z,19.26
2023-05-04T13:09:51.305Z,19.20
2023-05-04T13:12:53.055Z,19.46
2023-05-04T13:15:54.982Z,19.34
2023-05-04T13:18:59.676Z,19.19
2023-05-04T13:22:01.332Z,19.35
2023-05-04T13:25:03.090Z,19.56
2023-05-04T13:28:04.717Z,19.71
2023-05-04T13:31:06.470Z,19.66
2023-05-04T13:34:08.223Z,19.66
2023-05-04T13:37:09.896Z,19.60
2023-05-04T13:40:12.120Z,19.60
2023-05-04T13:43:13.901Z,19.93
2023-05-04T13:46:15.612Z,20.42
2023-05-04T13:49:17.315Z,20.43
2023-05-04T13:52:18.960Z,20.44
2023-05-04T13:55:20.953Z,20.57
2023-05-04T13:58:22.596Z,20.87
2023-05-04T14:01:24.394Z,21.29
2023-05-04T14:04:26.187Z,21.13
2023-05-04T14:07:27.821Z,20.83
2023-05-04T14:10:29.487Z,20.77
2023-05-04T14:13:31.185Z,20.89
2023-05-04T14:16:32.895Z,21.58
2023-05-04T14:19:34.617Z,21.69
2023-05-04T14:22:38.154Z,21.81
2023-05-04T14:25:40.004Z,21.56
2023-05-04T14:28:41.677Z,21.49
2023-05-04T14:31:43.377Z,21.45
2023-05-04T14:34:46.034Z,21.70
2023-05-04T14:37:47.683Z,22.29
2023-05-04T14:40:49.791Z,22.84
2023-05-04T14:43:51.514Z,22.96
2023-05-04T14:46:53.188Z,23.41
2023-05-04T14:49:54.835Z,23.71
2023-05-04T14:52:56.524Z,23.90
2023-05-04T14:55:58.411Z,24.27
2023-05-04T14:59:00.059Z,24.73
2023-05-04T15:02:01.777Z,24.97
2023-05-04T15:05:03.461Z,24.77
2023-05-04T15:08:05.364Z,25.40
2023-05-04T15:11:08.769Z,25.73
2023-05-04T15:14:10.385Z,25.48
2023-05-04T15:17:12.106Z,25.79
2023-05-04T15:20:17.198Z,25.92
2023-05-04T15:23:18.864Z,26.22
2023-05-04T15:26:20.508Z,27.06
2023-05-04T15:29:22.091Z,27.67
2023-05-04T15:32:23.809Z,27.57
2023-05-04T15:35:25.691Z,27.51
2023-05-04T15:38:27.340Z,27.37
2023-05-04T15:41:28.977Z,27.13
2023-05-04T15:44:30.629Z,27.40
2023-05-04T15:47:32.416Z,27.98
2023-05-04T15:50:34.051Z,28.39
2023-05-04T15:53:35.703Z,28.15
2023-05-04T15:56:37.265Z,27.54
2023-05-04T15:59:39.134Z,26.86
2023-05-04T16:02:40.791Z,26.89
2023-05-04T16:05:42.499Z,26.75
2023-05-04T16:08:44.129Z,26.55
2023-05-04T16:11:45.793Z,26.11
2023-05-04T16:14:48.014Z,25.91
2023-05-04T16:17:49.672Z,26.15
2023-05-04T16:20:51.376Z,26.41
2023-05-04T16:23:53.006Z,26.65
2023-05-04T16:26:54.670Z,26.54
2023-05-04T16:29:56.341Z,26.19
2023-05-04T16:32:58.482Z,26.02
2023-05-04T16:36:00.220Z,25.73
2023-05-04T16:39:01.905Z,25.50
2023-05-04T16:42:04.477Z,25.42
2023-05-04T16:45:06.470Z,25.24
2023-05-04T16:48:08.134Z,25.15
2023-05-04T16:51:09.771Z,25.04
2023-05-04T16:54:11.507Z,24.84
2023-05-04T16:57:13.402Z,24.64
2023-05-04T17:00:15.456Z,24.50
2023-05-04T17:03:17.609Z,24.49
2023-05-04T17:06:19.261Z,24.68
2023-05-04T17:09:20.877Z,25.02
2023-05-04T17:12:22.554Z,24.80
2023-05-04T17:15:24.261Z,24.17
2023-05-04T17:18:25.927Z,23.75
2023-05-04T17:21:27.623Z,23.49
2023-05-04T17:24:29.283Z,23.30
2023-05-04T17:27:30.994Z,22.89
2023-05-04T17:30:32.587Z,22.64
2023-05-04T17:33:34.234Z,22.22
2023-05-04T17:36:35.883Z,21.90
2023-05-04T17:39:37.535Z,21.51
2023-05-04T17:42:39.201Z,21.29
2023-05-04T17:45:40.855Z,21.14
2023-05-04T17:48:42.505Z,20.94
2023-05-04T17:51:44.230Z,20.81
2023-05-04T17:54:45.819Z,20.67
2023-05-04T17:57:47.507Z,20.48
2023-05-04T18:00:50.623Z,20.40
2023-05-04T18:03:54.444Z,20.29
2023-05-04T18:06:56.108Z,20.16
2023-05-04T18:09:57.746Z,19.97
2023-05-04T18:12:59.441Z,20.01
2023-05-04T18:16:01.106Z,19.81
2023-05-04T18:19:02.870Z,19.68
2023-05-04T18:22:04.723Z,19.67
2023-05-04T18:25:06.843Z,19.63
2023-05-04T18:28:08.844Z,19.63
2023-05-04T18:31:11.075Z,19.53
2023-05-04T18:34:13.142Z,19.47
2023-05-04T18:37:14.858Z,19.32
2023-05-04T18:40:16.536Z,19.25
2023-05-04T18:43:18.183Z,19.09
2023-05-04T18:46:22.966Z,19.02
2023-05-04T18:49:24.764Z,18.79
2023-05-04T18:52:26.573Z,18.63
2023-05-04T18:55:28.725Z,18.48
2023-05-04T18:58:31.116Z,18.33
2023-05-04T19:01:33.311Z,18.34
2023-05-04T19:04:35.439Z,18.24
2023-05-04T19:07:37.096Z,18.14
2023-05-04T19:10:38.739Z,18.04
2023-05-04T19:13:40.429Z,18.00
2023-05-04T19:16:42.123Z,17.91
2023-05-04T19:19:43.768Z,17.93
2023-05-04T19:22:45.561Z,17.92
2023-05-04T19:25:47.196Z,17.85
2023-05-04T19:28:48.836Z,17.90
2023-05-04T19:31:50.545Z,17.72
2023-05-04T19:34:52.295Z,17.71
2023-05-04T19:37:53.933Z,17.69
2023-05-04T19:40:55.588Z,17.54
2023-05-04T19:43:57.454Z,17.52
2023-05-04T19:46:59.254Z,17.42
2023-05-04T19:50:00.914Z,17.44
2023-05-04T19:53:02.904Z,17.36
2023-05-04T19:56:04.591Z,17.37
2023-05-04T19:59:06.231Z,17.39
2023-05-04T20:02:07.923Z,17.25
2023-05-04T20:05:09.574Z,17.23
2023-05-04T20:08:11.434Z,17.20
2023-05-04T20:11:13.077Z,17.05
2023-05-04T20:14:14.740Z,16.94
2023-05-04T20:17:16.370Z,17.01
2023-05-04T20:20:18.185Z,16.97
2023-05-04T20:23:19.835Z,16.86
2023-05-04T20:26:21.504Z,16.76
2023-05-04T20:29:23.141Z,16.72
2023-05-04T20:32:24.792Z,16.42
2023-05-04T20:35:26.462Z,16.31
2023-05-04T20:38:28.129Z,16.26
2023-05-04T20:41:29.760Z,16.33
2023-05-04T20:44:31.384Z,16.26
2023-05-04T20:47:33.101Z,16.28
2023-05-04T20:50:34.792Z,16.21
2023-05-04T20:53:36.443Z,16.11
2023-05-04T20:56:38.105Z,16.02
2023-05-04T20:59:39.758Z,15.98
2023-05-04T21:02:41.510Z,15.96
2023-05-04T21:05:43.190Z,15.86
2023-05-04T21:08:44.773Z,15.89
2023-05-04T21:11:46.408Z,15.90
2023-05-04T21:14:48.040Z,15.91
2023-05-04T21:17:49.680Z,15.90
2023-05-04T21:20:51.358Z,15.90
2023-05-04T21:23:53.001Z,15.91
2023-05-04T21:26:54.641Z,15.95
2023-05-04T21:29:56.363Z,15.98
2023-05-04T21:32:58.051Z,16.00
2023-05-04T21:36:14.993Z,15.96
2023-05-04T21:39:16.642Z,15.97
2023-05-04T21:42:18.302Z,15.92
2023-05-04T21:45:20.157Z,15.85
2023-05-04T21:48:21.780Z,15.86
2023-05-04T21:51:23.477Z,15.74
2023-05-04T21:54:25.116Z,15.65
2023-05-04T21:57:26.787Z,15.66
2023-05-04T22:00:28.440Z,15.59
2023-05-04T22:03:30.121Z,15.52
2023-05-04T22:06:31.790Z,15.47
2023-05-04T22:09:33.387Z,15.46
2023-05-04T22:12:35.086Z,15.32
2023-05-04T22:15:48.876Z,15.37
2023-05-04T22:18:51.840Z,15.33
2023-05-04T22:21:53.490Z,15.35
2023-05-04T22:24:55.127Z,15.33
2023-05-04T22:27:56.972Z,15.33
2023-05-04T22:30:58.642Z,15.33
2023-05-04T22:34:00.321Z,15.27
2023-05-04T22:37:01.972Z,15.18
2023-05-04T22:40:04.629Z,15.08
2023-05-04T22:43:06.386Z,15.11
2023-05-04T22:46:13.495Z,15.07
2023-05-04T22:49:16.959Z,15.04
2023-05-04T22:52:18.671Z,14.99
2023-05-04T22:55:20.414Z,14.96
2023-05-04T22:58:22.034Z,14.94
2023-05-04T23:01:23.720Z,14.91
2023-05-04T23:04:25.387Z,14.89
2023-05-04T23:07:27.007Z,14.82
2023-05-04T23:10:28.659Z,14.81
2023-05-04T23:13:30.315Z,14.77
2023-05-04T23:16:32.128Z,14.68
2023-05-04T23:19:33.839Z,14.60
2023-05-04T23:22:35.471Z,14.54
2023-05-04T23:25:37.103Z,14.47
2023-05-04T23:28:38.703Z,14.40
2023-05-04T23:31:40.399Z,14.35
2023-05-04T23:34:42.087Z,14.27
2023-05-04T23:37:43.732Z,14.21
2023-05-04T23:40:45.764Z,14.16
2023-05-04T23:43:47.404Z,14.05
2023-05-04T23:46:49.036Z,13.96
2023-05-04T23:49:50.635Z,13.86
2023-05-04T23:52:52.292Z,13.82
2023-05-04T23:55:58.259Z,13.71
2023-05-04T23:58:59.896Z,13.72
